• Join FlightAware (Why Join?)
  • Login
  • US Flag 
05:22PM EST


 

Airport Tracker/Info


-or-


 

Live Flight TrackerFlight Track Log ✈ CSN6763 ✈ 24-Dec-2013 ✈ ZGSZ / SZX - ZHLY / LYA

Flight Track Log - Related Links

Times and Time Zones

All times are in EST time to prevent confusion due to time zone crossing. See the CSN6763 flight status page for this flight to view local times or setup timezone preferences in your user account.

Time Position Orientation Groundspeed Altitude Reporting Facility
EST Latitude Longitude Course Direction KTS MPH feet Rate Location/Type
01:50AM 22.7605 113.7996 354° North  Level Estimated
01:51AM 22.8815 113.7868 354° North  Level Estimated
01:52AM 23.0025 113.7740 354° North  Level Estimated
01:53AM 23.1235 113.7612 354° North  Level Estimated
01:54AM 23.2445 113.7483 354° North  Level Estimated
01:55AM 23.3655 113.7354 354° North  Level Estimated
01:56AM 23.4866 113.7225 354° North  Level Estimated
01:57AM 23.6076 113.7095 354° North  Level Estimated
01:58AM 23.7286 113.6966 354° North  Level Estimated
01:59AM 23.8496 113.6836 354° North  Level Estimated
02:00AM 23.9706 113.6706 354° North  Level Estimated
02:01AM 24.0916 113.6575 354° North  Level Estimated
02:02AM 24.2126 113.6445 354° North  Level Estimated
02:03AM 24.3336 113.6314 354° North  Level Estimated
02:04AM 24.4546 113.6183 354° North  Level Estimated
02:05AM 24.5756 113.6051 354° North  Level Estimated
02:06AM 24.6966 113.5920 354° North  Level Estimated
02:07AM 24.8176 113.5788 354° North  Level Estimated
02:08AM 24.9386 113.5656 354° North  Level Estimated
02:09AM 25.0596 113.5523 354° North  Level Estimated
02:10AM 25.1648 113.5408 354° North  Level Estimated
02:11AM 25.2700 113.5293 354° North  Level Estimated
02:12AM 25.3752 113.5177 354° North  Level Estimated
02:13AM 25.4804 113.5061 354° North  Level Estimated
02:14AM 25.5856 113.4945 354° North  Level Estimated
02:15AM 25.6909 113.4829 354° North  Level Estimated
02:16AM 25.7961 113.4712 354° North  Level Estimated
02:17AM 25.9013 113.4595 354° North  Level Estimated
02:18AM 26.0065 113.4478 354° North  Level Estimated
02:19AM 26.1117 113.4361 354° North  Level Estimated
02:20AM 26.2169 113.4244 354° North  Level Estimated
02:21AM 26.3221 113.4126 354° North  Level Estimated
02:22AM 26.4273 113.4008 354° North  Level Estimated
02:23AM 26.5325 113.3890 354° North  Level Estimated
02:24AM 26.6377 113.3772 354° North  Level Estimated
02:25AM 26.7429 113.3653 354° North  Level Estimated
02:26AM 26.8481 113.3535 354° North  Level Estimated
02:27AM 26.9533 113.3416 354° North  Level Estimated
02:28AM 27.0585 113.3297 354° North  Level Estimated
02:29AM 27.1637 113.3177 354° North  Level Estimated
02:30AM 27.2689 113.3058 354° North  Level Estimated
02:31AM 27.3741 113.2938 354° North  Level Estimated
02:32AM 27.4792 113.2818 354° North  Level Estimated
02:33AM 27.5844 113.2698 354° North  Level Estimated
02:34AM 27.6896 113.2577 354° North  Level Estimated
02:35AM 27.7948 113.2457 354° North  Level Estimated
02:36AM 27.9000 113.2336 354° North  Level Estimated
02:37AM 28.0052 113.2214 354° North  Level Estimated
02:38AM 28.1104 113.2093 354° North  Level Estimated
02:39AM 28.2156 113.1971 354° North  Level Estimated
02:40AM 28.3207 113.1849 354° North  Level Estimated
02:41AM 28.4259 113.1727 354° North  Level Estimated
02:42AM 28.5311 113.1605 354° North  Level Estimated
02:43AM 28.6363 113.1482 354° North  Level Estimated
02:44AM 28.7415 113.1359 354° North  Level Estimated
02:45AM 28.8466 113.1236 354° North  Level Estimated
02:46AM 28.9518 113.1113 354° North  Level Estimated
02:47AM 29.0570 113.0989 354° North  Level Estimated
02:48AM 29.1622 113.0865 354° North  Level Estimated
02:49AM 29.2673 113.0741 354° North  Level Estimated
02:50AM 29.3725 113.0617 354° North  Level Estimated
02:51AM 29.4777 113.0492 354° North  Level Estimated
02:52AM 29.5829 113.0367 354° North  Level Estimated
02:53AM 29.6880 113.0242 354° North  Level Estimated
02:54AM 29.7932 113.0117 354° North  Level Estimated
02:55AM 29.8984 112.9991 354° North  Level Estimated
02:56AM 30.0035 112.9865 354° North  Level Estimated
02:57AM 30.1087 112.9739 354° North  Level Estimated
02:58AM 30.2139 112.9612 354° North  Level Estimated
02:59AM 30.3190 112.9485 354° North  Level Estimated
03:00AM 30.4242 112.9358 354° North  Level Estimated
03:01AM 30.5293 112.9231 354° North  Level Estimated
03:02AM 30.6345 112.9103 354° North  Level Estimated
03:03AM 30.7397 112.8976 354° North  Level Estimated
03:04AM 30.8448 112.8847 354° North  Level Estimated
03:05AM 30.9499 112.8719 354° North  Level Estimated
03:06AM 31.0551 112.8590 354° North  Level Estimated
03:07AM 31.1602 112.8461 354° North  Level Estimated
03:08AM 31.2654 112.8332 354° North  Level Estimated
03:09AM 31.3706 112.8202 354° North  Level Estimated
03:10AM 31.4757 112.8072 354° North  Level Estimated
03:11AM 31.5809 112.7942 354° North  Level Estimated
03:12AM 31.6860 112.7812 354° North  Level Estimated
03:13AM 31.7911 112.7681 354° North  Level Estimated
03:14AM 31.8963 112.7550 354° North  Level Estimated
03:15AM 32.0014 112.7419 354° North  Level Estimated
03:16AM 32.1065 112.7287 354° North  Level Estimated
03:17AM 32.2117 112.7155 354° North  Level Estimated
03:18AM 32.3168 112.7023 354° North  Level Estimated
03:19AM 32.4220 112.6890 354° North  Level Estimated
03:20AM 32.5271 112.6757 354° North  Level Estimated
03:21AM 32.6322 112.6624 354° North  Level Estimated
03:22AM 32.7374 112.6491 354° North  Level Estimated
03:23AM 32.8425 112.6357 354° North  Level Estimated
03:24AM 32.9476 112.6223 354° North  Level Estimated
03:25AM 33.0527 112.6088 354° North  Level Estimated
03:26AM 33.1579 112.5954 354° North  Level Estimated
03:27AM 33.2630 112.5818 354° North  Level Estimated
03:28AM 33.3681 112.5683 354° North  Level Estimated
03:29AM 33.4732 112.5547 354° North  Level Estimated
03:30AM 33.5784 112.5411 354° North  Level Estimated
03:31AM 33.6835 112.5275 354° North  Level Estimated
03:32AM 33.7886 112.5138 354° North  Level Estimated
03:33AM 33.8937 112.5001 354° North  Level Estimated
03:34AM 33.9988 112.4864 354° North  Level Estimated
03:35AM 34.1039 112.4726 354° North  Level Estimated
03:36AM 34.2090 112.4588 354° North  Level Estimated
03:37AM 34.3142 112.4449 354° North  Level Estimated
03:38AM 34.4193 112.4311 354° North  Level Estimated
03:39AM 34.5244 112.4171 354° North  Level Estimated
03:40AM 34.6295 112.4032 354° North  Level Estimated
03:41AM 34.7346 112.3892 354° North  Level Estimated
03:42AM 34.7411 112.3883 354° North  Level Estimated
03:43AM 34.7411 112.3883 68° East  Level Estimated
03:44AM 34.7411 112.3883 68° East  Level Estimated